Colmenarejo, Spain
Current Conditions -  °F | °C
As of 12:00 PM on Thursday 27 Nov 2014 (Local Time) from LECV Reporting Station
Drizzle Drizzle  
Wind Chill: 40°   Ceiling: 100
Heat Index: 45°   Visibility: 0.06mi
Dew Point: 45°   Wind: 9mph
Humidity: 100%   Direction: 170°S
Pressure: 29.62"   Gusts: NA
Location:  40.56°N, 4.02°W
Report Text: LECV 271100Z 17008KT 140V220 0100 FG DZ VV001 07/07 Q1003
Loading
Personal Weather Stations






























Interactive Weather Map New forecast layout! Learn more

10-Day Weather Forecast

Advertisements
Track Severe Weather on mobile